createdAt,value
2022-11-24T00:01:14.628Z,21.20
2022-11-24T00:04:16.038Z,21.10
2022-11-24T00:07:17.512Z,20.90
2022-11-24T00:10:19.616Z,20.80
2022-11-24T00:13:21.025Z,20.50
2022-11-24T00:16:25.067Z,21.00
2022-11-24T00:19:26.546Z,21.20
2022-11-24T00:22:27.975Z,20.90
2022-11-24T00:25:29.823Z,21.00
2022-11-24T00:28:31.692Z,20.90
2022-11-24T00:31:35.638Z,21.00
2022-11-24T00:34:37.459Z,21.20
2022-11-24T00:37:38.979Z,21.10
2022-11-24T00:40:42.154Z,20.90
2022-11-24T00:43:43.571Z,20.90
2022-11-24T00:46:45.290Z,20.90
2022-11-24T00:49:46.993Z,21.00
2022-11-24T00:52:48.432Z,21.00
2022-11-24T00:55:51.277Z,21.00
2022-11-24T00:58:52.677Z,21.00
2022-11-24T01:01:54.420Z,21.10
2022-11-24T01:04:55.845Z,21.10
2022-11-24T01:07:57.253Z,21.00
2022-11-24T01:11:08.183Z,21.00
2022-11-24T01:14:09.596Z,21.00
2022-11-24T01:17:11.195Z,21.10
2022-11-24T01:20:12.962Z,20.90
2022-11-24T01:23:14.434Z,21.00
2022-11-24T01:26:17.922Z,20.60
2022-11-24T01:29:19.337Z,21.20
2022-11-24T01:32:20.646Z,21.00
2022-11-24T01:35:22.096Z,20.70
2022-11-24T01:38:23.565Z,20.80
2022-11-24T01:41:25.859Z,20.90
2022-11-24T01:44:29.115Z,20.90
2022-11-24T01:47:36.003Z,20.90
2022-11-24T01:50:37.906Z,20.90
2022-11-24T01:53:43.545Z,20.90
2022-11-24T01:56:50.957Z,20.50
2022-11-24T01:59:55.515Z,20.60
2022-11-24T02:02:59.384Z,21.00
2022-11-24T02:06:03.994Z,21.00
2022-11-24T02:09:11.907Z,20.50
2022-11-24T02:12:14.048Z,20.80
2022-11-24T02:15:16.617Z,20.60
2022-11-24T02:18:18.209Z,20.70
2022-11-24T02:21:19.848Z,20.50
2022-11-24T02:24:26.655Z,21.00
2022-11-24T02:27:28.653Z,21.10
2022-11-24T02:30:30.143Z,20.90
2022-11-24T02:33:32.812Z,20.80
2022-11-24T02:36:34.162Z,21.10
2022-11-24T02:39:35.645Z,20.50
2022-11-24T02:42:40.649Z,20.70
2022-11-24T02:45:42.132Z,20.90
2022-11-24T02:48:43.572Z,20.70
2022-11-24T02:51:45.266Z,20.70
2022-11-24T02:54:46.674Z,20.80
2022-11-24T02:57:49.043Z,20.30
2022-11-24T03:00:53.414Z,20.80
2022-11-24T03:03:54.826Z,20.90
2022-11-24T03:06:56.862Z,20.80
2022-11-24T03:09:58.233Z,21.00
2022-11-24T03:13:00.258Z,20.80
2022-11-24T03:16:01.717Z,20.80
2022-11-24T03:19:03.504Z,20.90
2022-11-24T03:22:05.409Z,20.80
2022-11-24T03:25:06.802Z,20.70
2022-11-24T03:28:08.738Z,20.40
2022-11-24T03:31:10.734Z,20.40
2022-11-24T03:34:12.163Z,20.70
2022-11-24T03:37:13.675Z,20.60
2022-11-24T03:40:15.168Z,20.70
2022-11-24T03:43:17.123Z,20.30
2022-11-24T03:46:18.679Z,20.60
2022-11-24T03:49:20.224Z,20.80
2022-11-24T03:52:21.757Z,20.50
2022-11-24T03:55:23.045Z,20.70
2022-11-24T03:58:25.154Z,20.30
2022-11-24T04:01:26.606Z,20.60
2022-11-24T04:04:27.914Z,20.70
2022-11-24T04:07:29.421Z,20.70
2022-11-24T04:10:32.669Z,21.00
2022-11-24T04:13:34.414Z,20.30
2022-11-24T04:16:36.591Z,20.70
2022-11-24T04:19:38.253Z,20.70
2022-11-24T04:22:39.922Z,20.70
2022-11-24T04:25:42.617Z,20.40
2022-11-24T04:28:45.950Z,20.70
2022-11-24T04:31:47.338Z,20.70
2022-11-24T04:34:48.701Z,20.30
2022-11-24T04:37:50.125Z,20.70
2022-11-24T04:40:51.429Z,20.30
2022-11-24T04:43:53.417Z,20.60
2022-11-24T04:46:54.940Z,20.40
2022-11-24T04:49:56.487Z,20.60
2022-11-24T04:52:58.136Z,20.30
2022-11-24T04:56:04.048Z,20.50
2022-11-24T04:59:08.421Z,20.70
2022-11-24T05:02:11.110Z,20.80
2022-11-24T05:05:12.618Z,20.70
2022-11-24T05:08:13.992Z,20.70
2022-11-24T05:11:16.166Z,20.10
2022-11-24T05:14:18.213Z,20.20
2022-11-24T05:17:19.934Z,20.60
2022-11-24T05:20:21.809Z,20.60
2022-11-24T05:23:23.336Z,20.60
2022-11-24T05:26:25.611Z,20.50
2022-11-24T05:29:27.585Z,20.60
2022-11-24T05:32:28.986Z,20.30
2022-11-24T05:35:30.384Z,20.30
2022-11-24T05:38:32.648Z,20.60
2022-11-24T05:41:34.056Z,20.30
2022-11-24T05:44:36.571Z,20.60
2022-11-24T05:47:39.118Z,20.80
2022-11-24T05:50:40.781Z,20.50
2022-11-24T05:53:42.269Z,20.40
2022-11-24T05:56:43.630Z,20.90
2022-11-24T05:59:45.638Z,20.30
2022-11-24T06:02:47.971Z,20.60
2022-11-24T06:05:49.574Z,20.60
2022-11-24T06:08:50.902Z,20.90
2022-11-24T06:11:52.431Z,20.60
2022-11-24T06:14:54.270Z,20.40
2022-11-24T06:17:55.860Z,20.60
2022-11-24T06:21:10.311Z,20.50
2022-11-24T06:24:13.903Z,20.40
2022-11-24T06:27:15.938Z,20.30
2022-11-24T06:30:18.035Z,20.40
2022-11-24T06:33:20.051Z,20.70
2022-11-24T06:36:21.559Z,20.30
2022-11-24T06:44:21.822Z,20.10
2022-11-24T06:47:23.881Z,20.80
2022-11-24T06:50:29.294Z,20.70
2022-11-24T06:53:37.465Z,20.10
2022-11-24T06:56:39.064Z,20.20
2022-11-24T06:59:40.522Z,20.70
2022-11-24T07:02:45.872Z,20.60
2022-11-24T07:05:47.689Z,20.30
2022-11-24T07:08:49.834Z,20.60
2022-11-24T07:11:51.280Z,20.50
2022-11-24T07:14:52.735Z,20.60
2022-11-24T07:17:54.659Z,20.60
2022-11-24T07:20:55.894Z,21.00
2022-11-24T07:23:58.303Z,20.70
2022-11-24T07:26:59.703Z,20.50
2022-11-24T07:30:01.309Z,20.50
2022-11-24T07:33:03.489Z,20.10
2022-11-24T07:36:07.535Z,20.60
2022-11-24T07:39:09.003Z,20.70
2022-11-24T07:42:10.683Z,20.30
2022-11-24T07:45:12.115Z,20.90
2022-11-24T07:48:16.520Z,20.90
2022-11-24T07:51:18.017Z,20.40
2022-11-24T07:54:19.506Z,20.70
2022-11-24T07:57:20.971Z,20.90
2022-11-24T08:00:22.406Z,20.70
2022-11-24T08:03:24.848Z,21.00
2022-11-24T08:06:33.862Z,20.70
2022-11-24T08:09:42.191Z,20.70
2022-11-24T08:12:48.708Z,20.80
2022-11-24T08:15:50.387Z,20.60
2022-11-24T08:18:55.260Z,21.00
2022-11-24T08:21:57.095Z,20.90
2022-11-24T08:24:58.812Z,20.80
2022-11-24T08:28:02.032Z,21.00
2022-11-24T08:31:05.899Z,20.60
2022-11-24T08:34:09.603Z,21.00
2022-11-24T08:37:11.666Z,20.90
2022-11-24T08:40:14.406Z,20.90
2022-11-24T08:43:18.394Z,20.50
2022-11-24T08:46:22.566Z,21.30
2022-11-24T08:49:25.237Z,21.20
2022-11-24T08:52:26.980Z,21.10
2022-11-24T08:55:29.007Z,20.80
2022-11-24T08:58:31.276Z,21.60
2022-11-24T09:01:33.019Z,21.30
2022-11-24T09:04:39.349Z,20.90
2022-11-24T09:07:40.975Z,21.20
2022-11-24T09:10:43.197Z,20.90
2022-11-24T09:13:44.866Z,21.10
2022-11-24T09:16:46.572Z,20.80
2022-11-24T09:19:48.844Z,22.10
2022-11-24T09:22:50.603Z,21.00
2022-11-24T09:25:52.536Z,21.00
2022-11-24T09:28:55.846Z,21.10
2022-11-24T09:32:00.814Z,21.20
2022-11-24T09:35:07.997Z,21.40
2022-11-24T09:38:10.975Z,21.10
2022-11-24T09:41:39.452Z,21.60
2022-11-24T09:44:55.742Z,21.60
2022-11-24T09:48:01.839Z,21.30
2022-11-24T09:51:05.298Z,21.50
2022-11-24T09:54:15.759Z,21.40
2022-11-24T09:57:19.295Z,21.60
2022-11-24T10:00:21.125Z,22.00
2022-11-24T10:03:28.976Z,21.40
2022-11-24T10:06:38.061Z,22.00
2022-11-24T10:09:56.202Z,21.80
2022-11-24T10:13:07.549Z,21.30
2022-11-24T10:16:16.613Z,21.60
2022-11-24T10:19:38.049Z,21.80
2022-11-24T10:22:51.529Z,21.80
2022-11-24T10:25:57.423Z,21.60
2022-11-24T10:28:59.278Z,21.80
2022-11-24T10:32:05.820Z,21.80
2022-11-24T10:35:15.856Z,21.90
2022-11-24T10:38:30.773Z,22.00
2022-11-24T10:41:46.465Z,22.00
2022-11-24T10:44:59.802Z,22.00
2022-11-24T10:48:01.522Z,21.80
2022-11-24T10:51:30.504Z,21.90
2022-11-24T10:54:35.283Z,21.70
2022-11-24T10:57:39.770Z,22.10
2022-11-24T11:00:41.728Z,22.00
2022-11-24T11:03:50.446Z,21.70
2022-11-24T11:06:55.511Z,22.10
2022-11-24T11:10:18.876Z,22.20
2022-11-24T11:13:24.044Z,22.10
2022-11-24T11:16:32.094Z,22.20
2022-11-24T11:19:56.993Z,21.80
2022-11-24T11:23:02.409Z,22.10
2022-11-24T11:26:19.647Z,22.20
2022-11-24T11:36:23.100Z,22.20
2022-11-24T11:39:31.394Z,22.20
2022-11-24T11:43:10.702Z,22.10
2022-11-24T11:46:06.193Z,21.50
2022-11-24T11:49:10.767Z,21.70
2022-11-24T11:52:36.317Z,22.00
2022-11-24T11:55:50.597Z,22.20
2022-11-24T11:59:27.322Z,22.20
2022-11-24T12:02:58.168Z,22.00
2022-11-24T12:06:10.026Z,22.20
2022-11-24T12:09:22.100Z,22.10
2022-11-24T12:12:47.252Z,21.80
2022-11-24T12:15:52.208Z,22.10
2022-11-24T12:19:27.716Z,22.10
2022-11-24T12:22:39.100Z,22.30
2022-11-24T12:25:45.150Z,22.10
2022-11-24T12:28:56.537Z,22.10
2022-11-24T12:32:10.713Z,22.10
2022-11-24T12:35:22.473Z,22.00
2022-11-24T12:38:37.074Z,21.80
2022-11-24T12:41:53.677Z,22.10
2022-11-24T12:45:12.593Z,22.10
2022-11-24T12:48:28.234Z,22.00
2022-11-24T12:51:34.595Z,21.80
2022-11-24T12:54:39.447Z,22.10
2022-11-24T12:57:47.861Z,21.80
2022-11-24T13:01:02.383Z,22.10
2022-11-24T13:04:12.131Z,22.30
2022-11-24T13:07:17.760Z,21.90
2022-11-24T13:13:59.261Z,22.40
2022-11-24T13:20:30.634Z,22.50
2022-11-24T13:23:32.303Z,22.30
2022-11-24T13:26:45.301Z,22.10
2022-11-24T13:29:48.418Z,22.10
2022-11-24T13:33:00.901Z,22.40
2022-11-24T13:36:30.080Z,22.20
2022-11-24T13:39:51.791Z,21.80
2022-11-24T13:43:14.711Z,22.60
2022-11-24T13:46:51.233Z,22.30
2022-11-24T13:49:53.528Z,22.30
2022-11-24T13:53:05.954Z,22.40
2022-11-24T13:56:21.474Z,22.10
2022-11-24T13:59:30.203Z,21.90
2022-11-24T14:02:33.833Z,21.80
2022-11-24T14:05:38.716Z,22.10
2022-11-24T14:08:40.554Z,22.00
2022-11-24T14:11:42.858Z,21.60
2022-11-24T14:14:46.006Z,22.30
2022-11-24T14:17:47.679Z,21.90
2022-11-24T14:20:50.455Z,22.30
2022-11-24T14:23:55.245Z,22.10
2022-11-24T14:26:58.307Z,22.40
2022-11-24T14:30:02.582Z,22.40
2022-11-24T14:33:11.796Z,22.10
2022-11-24T14:36:15.483Z,21.60
2022-11-24T14:39:18.781Z,22.50
2022-11-24T14:42:23.018Z,22.00
2022-11-24T14:45:24.658Z,22.30
2022-11-24T14:48:29.811Z,22.40
2022-11-24T14:51:35.207Z,22.70
2022-11-24T14:54:44.513Z,22.40
2022-11-24T14:57:46.168Z,22.30
2022-11-24T15:01:10.805Z,22.40
2022-11-24T15:04:26.475Z,22.20
2022-11-24T15:07:29.802Z,22.40
2022-11-24T15:10:35.817Z,21.90
2022-11-24T15:13:38.790Z,22.10
2022-11-24T15:16:41.511Z,22.40
2022-11-24T15:19:46.358Z,22.40
2022-11-24T15:22:51.524Z,22.40
2022-11-24T15:25:54.146Z,22.00
2022-11-24T15:28:55.644Z,22.10
2022-11-24T15:31:58.423Z,22.30
2022-11-24T15:35:00.096Z,22.40
2022-11-24T15:38:02.231Z,22.40
2022-11-24T15:41:15.750Z,22.70
2022-11-24T15:44:17.529Z,22.90
2022-11-24T15:47:19.086Z,21.80
2022-11-24T15:50:21.298Z,22.20
2022-11-24T15:53:25.448Z,22.50
2022-11-24T15:56:31.456Z,21.90
2022-11-24T15:59:33.180Z,22.40
2022-11-24T16:02:34.781Z,22.40
2022-11-24T16:05:37.688Z,22.40
2022-11-24T16:08:40.030Z,21.70
2022-11-24T16:11:41.902Z,22.20
2022-11-24T16:14:43.630Z,22.00
2022-11-24T16:17:45.523Z,22.10
2022-11-24T16:20:47.163Z,22.50
2022-11-24T16:23:49.447Z,22.50
2022-11-24T16:26:51.198Z,22.10
2022-11-24T16:29:52.697Z,21.90
2022-11-24T16:32:55.200Z,22.50
2022-11-24T16:35:56.951Z,22.30
2022-11-24T16:38:59.851Z,21.90
2022-11-24T16:42:01.343Z,22.40
2022-11-24T16:45:03.453Z,22.30
2022-11-24T16:48:05.372Z,22.40
2022-11-24T16:51:09.206Z,22.80
2022-11-24T16:54:11.463Z,22.40
2022-11-24T16:57:14.959Z,22.10
2022-11-24T17:00:18.051Z,22.60
2022-11-24T17:03:19.564Z,22.40
2022-11-24T17:06:21.452Z,22.00
2022-11-24T17:09:23.685Z,22.10
2022-11-24T17:12:25.224Z,22.20
2022-11-24T17:15:39.151Z,22.80
2022-11-24T17:18:44.788Z,22.80
2022-11-24T17:21:46.563Z,22.80
2022-11-24T17:24:48.699Z,22.40
2022-11-24T17:27:50.857Z,22.10
2022-11-24T17:30:52.337Z,22.60
2022-11-24T17:33:55.595Z,22.40
2022-11-24T17:43:37.008Z,22.10
2022-11-24T17:46:38.899Z,22.20
2022-11-24T17:49:40.515Z,22.10
2022-11-24T17:52:42.081Z,22.90
2022-11-24T17:55:43.874Z,21.90
2022-11-24T17:58:45.998Z,22.40
2022-11-24T18:01:47.433Z,22.30
2022-11-24T18:04:48.830Z,22.50
2022-11-24T18:07:50.400Z,22.40
2022-11-24T18:10:51.906Z,22.70
2022-11-24T18:13:59.709Z,22.30
2022-11-24T18:17:02.559Z,22.70
2022-11-24T18:20:04.953Z,22.30
2022-11-24T18:23:06.467Z,22.40
2022-11-24T18:26:09.928Z,22.30
2022-11-24T18:29:12.055Z,22.40
2022-11-24T18:32:13.592Z,22.30
2022-11-24T18:35:15.045Z,21.80
2022-11-24T18:38:16.343Z,21.70
2022-11-24T18:41:18.199Z,22.30
2022-11-24T18:44:20.205Z,22.20
2022-11-24T18:47:21.891Z,22.20
2022-11-24T18:50:23.558Z,22.20
2022-11-24T18:53:26.598Z,21.60
2022-11-24T18:56:28.407Z,22.20
2022-11-24T18:59:30.601Z,22.00
2022-11-24T19:02:32.370Z,21.90
2022-11-24T19:05:34.498Z,22.00
2022-11-24T19:08:36.196Z,22.30
2022-11-24T19:11:40.171Z,21.70
2022-11-24T19:14:42.229Z,21.70
2022-11-24T19:17:47.161Z,22.10
2022-11-24T19:20:49.009Z,22.00
2022-11-24T19:23:50.394Z,21.70
2022-11-24T19:26:53.396Z,22.20
2022-11-24T19:29:55.342Z,22.00
2022-11-24T19:32:56.920Z,21.90
2022-11-24T19:36:01.536Z,21.60
2022-11-24T19:39:04.299Z,21.60
2022-11-24T19:42:05.770Z,21.60
2022-11-24T19:45:08.491Z,21.90
2022-11-24T19:48:10.071Z,22.20
2022-11-24T19:51:13.356Z,21.80
2022-11-24T19:54:16.276Z,21.60
2022-11-24T19:57:17.762Z,22.50
2022-11-24T20:00:19.818Z,21.80
2022-11-24T20:03:21.274Z,21.40
2022-11-24T20:06:22.564Z,21.70
2022-11-24T20:09:24.182Z,21.50
2022-11-24T20:12:25.622Z,21.70
2022-11-24T20:15:28.206Z,21.40
2022-11-24T20:18:30.619Z,21.80
2022-11-24T20:21:33.692Z,21.70
2022-11-24T20:24:35.344Z,21.90
2022-11-24T20:27:36.876Z,21.80
2022-11-24T20:30:38.715Z,21.60
2022-11-24T20:33:40.790Z,21.60
2022-11-24T20:36:44.415Z,22.00
2022-11-24T20:39:45.929Z,21.60
2022-11-24T20:42:47.231Z,21.50
2022-11-24T20:45:49.472Z,21.60
2022-11-24T20:48:51.905Z,21.40
2022-11-24T20:51:54.144Z,21.20
2022-11-24T20:54:56.564Z,21.50
2022-11-24T20:57:58.063Z,21.50
2022-11-24T21:01:03.628Z,21.90
2022-11-24T21:04:07.546Z,20.90
2022-11-24T21:07:12.547Z,21.30
2022-11-24T21:10:14.033Z,21.30
2022-11-24T21:13:15.321Z,21.60
2022-11-24T21:16:19.585Z,21.20
2022-11-24T21:19:21.319Z,21.40
2022-11-24T21:22:22.798Z,21.50
2022-11-24T21:25:24.179Z,21.40
2022-11-24T21:28:25.601Z,21.50
2022-11-24T21:31:27.597Z,21.30
2022-11-24T21:34:29.120Z,21.30
2022-11-24T21:37:30.514Z,21.20
2022-11-24T21:40:32.071Z,21.10
2022-11-24T21:43:33.397Z,21.20
2022-11-24T21:46:42.166Z,21.80
2022-11-24T21:49:46.585Z,21.50
2022-11-24T21:52:48.181Z,21.40
2022-11-24T21:55:54.414Z,21.10
2022-11-24T21:58:57.802Z,21.20
2022-11-24T22:01:59.920Z,22.30
2022-11-24T22:05:01.559Z,21.30
2022-11-24T22:08:03.698Z,21.00
2022-11-24T22:11:07.941Z,21.40
2022-11-24T22:14:09.677Z,21.10
2022-11-24T22:17:13.765Z,21.40
2022-11-24T22:20:15.553Z,21.30
2022-11-24T22:23:17.042Z,21.30
2022-11-24T22:26:19.706Z,21.20
2022-11-24T22:29:21.218Z,21.30
2022-11-24T22:32:23.065Z,21.40
2022-11-24T22:35:24.329Z,21.40
2022-11-24T22:38:26.527Z,21.20
2022-11-24T22:41:28.066Z,21.00
2022-11-24T22:44:29.379Z,21.30
2022-11-24T22:47:31.444Z,20.70
2022-11-24T22:50:33.078Z,21.70
2022-11-24T22:53:34.746Z,21.30
2022-11-24T22:56:36.172Z,20.80
2022-11-24T22:59:37.539Z,21.20
2022-11-24T23:02:39.885Z,21.10
2022-11-24T23:05:41.509Z,21.10
2022-11-24T23:08:43.999Z,21.30
2022-11-24T23:11:45.405Z,21.30
2022-11-24T23:14:46.663Z,21.30
2022-11-24T23:17:48.675Z,21.30
2022-11-24T23:20:50.238Z,21.20
2022-11-24T23:23:52.095Z,21.10
2022-11-24T23:26:53.516Z,20.80
2022-11-24T23:29:54.934Z,21.30
2022-11-24T23:32:56.825Z,21.00
2022-11-24T23:35:59.538Z,21.10
2022-11-24T23:39:02.259Z,21.40
2022-11-24T23:42:03.805Z,21.00
2022-11-24T23:45:07.152Z,20.70
2022-11-24T23:48:09.036Z,21.00
2022-11-24T23:51:11.812Z,21.10
2022-11-24T23:54:13.125Z,20.90
2022-11-24T23:57:14.362Z,20.60
